Share

Copeland, KS (67837)

Lobmeyer Seed Farms (KKSGARDE9) Elev 2890 ft | 37.74 °N, 100.85 °W | Change Station

Current weather conditions updated 5 minutes ago

Clear
Clear
80.5 °F
Feels Like 80 °F
N
13.0
Wind Variable Wind from South
Gusts 19.0 mph
Sunrise 7:02 AM
Sunset 8:21 PM
Moon Waning Gibbous

Tomorrow is forecast to be Cooler than today. Thunderstorms developing in the afternoon.

Pressure 29.88 in
Visibility 10.0 miles
Clouds Clear
Heat Index 80 °F
Dew Point 50 °F
Humidity 34%
Rainfall 0.00 in
Snow Depth Not available.
UV 8 out of 16
Pollen 11.50 out of 12
Air Quality Not available.
Flu Activity No Activity
METAR KGCK 192054Z 19019G26KT 10SM CLR 24/08 A2994 RMK AO2 PK WND 18030/2040 SLP117 T02440083 58005

More Conditions Fewer Conditions

Pressure 29.88 in
Visibility 10.0 miles
Clouds Clear
Heat Index 80 °F
Dew Point 50 °F
Humidity 34%
Rainfall 0.00 in
Snow Depth Not available.
UV 8 out of 16
Pollen 11.50 out of 12
Air Quality Not available.
Flu Activity No Activity
METAR KGCK 192054Z 19019G26KT 10SM CLR 24/08 A2994 RMK AO2 PK WND 18030/2040 SLP117 T02440083 58005

More Conditions Fewer Conditions

10-Day Weather Forecast

Almanac

Astronomy

Apr. 19, 2014 Rise Set
Actual Time 7:02 AM CDT 8:21 PM CDT
Civil Twilight 6:34 AM CDT 8:48 PM CDT
Nautical Twilight 6:02 AM CDT 9:21 PM CDT
Astronomical Twilight 5:28 AM CDT 9:55 PM CDT
Moon 12:05 AM CDT 10:25 AM CDT
Length of Visible Light 14h 14m
Length of Day
13h 19m
Tomorrow will be 2m 15s longer.
Waning Gibbous, 76% of the Moon is Illuminated
Today
Waning Gibbous
Apr 22
Last Quarter
Apr 29
New
May 6
First Quarter
May 14
Full

Today's Extremes

State Highs State Lows

Community

  • Skirting the Horizon
    Skirting the Horizon
  • Piriapolis
    Piriapolis
  • A Glorious Morning
    A Glorious Morning
  • Tender Rays Of Hope
    Tender Rays Of Hope
  • Bleeding Hearts
    Bleeding Hearts

WunderPhotos

Upload Photos

1,702,915 photos uploaded!

WunderBlogs® & News

Nearby

Snow Depth

Station Depth Elevation
No new snow has been reported.

Coastal Water Temperatures

Place Temperature
No Stations Reporting

Earthquake Activity

City Distance Mag. Time & Date
No recent earthquake activity has been reported nearby.
Minimum magnitude displayed is 2.5.

Nearby Weather Stations

Station Location Temp. Heat Index Dew Point Humidity Wind Precip. Elev Updated Type
Lobmeyer Seed Farms, Garden City, KS 80.5 °F 80 °F 50 °F 34% South  at  13.0 mph 0.00 in / hr 2890 ft 4:39 PM CDT Normal
MesoWest HOBART , Plains, KS 69 °F - - - North  at  - 0.00 in / hr 2759 ft 12:50 PM CDT MADIS
4 miles NW of Fowler, Fowler, KS 80.9 °F 80 °F 52 °F 37% South  at  11.0 mph - / hr 2493 ft 4:42 PM CDT Normal
Country, Kismet, KS 80.4 °F 79 °F 46 °F 30% SW  at  19.0 mph 0.00 in / hr 2791 ft 4:44 PM CDT Rapid Fire

Show More Stations Show Fewer Stations

What do you think?

We're not finished. Please let us know what you like, what you don't like, and what you are still missing.